Time;durP1;ratioP1;P1;durP2;ratioP2;P2;SDS_P1;SDS_P2;PMS_P1;PMS_P2;Temp;Humidity;BMP_temperature;BMP_pressure;BME280_temperature;BME280_humidity;BME280_pressure;Samples;Min_cycle;Max_cycle;Signal;HPM_P1;HPM_P2
2023/09/26 00:00:19;;;;;;;8.90;4.35;;;;;;;13.14;100.00;102113.75;5051302;28;20025;-52
2023/09/26 00:02:46;;;;;;;8.40;3.60;;;;;;;13.14;100.00;102117.28;5052083;28;20025;-52
2023/09/26 00:05:12;;;;;;;4.18;3.70;;;;;;;13.14;100.00;102106.59;5050397;28;20025;-52
2023/09/26 00:07:37;;;;;;;5.22;4.07;;;;;;;13.10;100.00;102104.25;5051526;28;20465;-53
2023/09/26 00:10:06;;;;;;;5.90;3.88;;;;;;;13.11;100.00;102095.28;5050842;28;20029;-54
2023/09/26 00:12:31;;;;;;;5.05;3.70;;;;;;;13.10;100.00;102105.09;5051348;28;20032;-54
2023/09/26 00:14:57;;;;;;;5.00;3.75;;;;;;;13.09;100.00;102099.84;5050436;28;20032;-53
2023/09/26 00:17:22;;;;;;;6.28;3.88;;;;;;;13.07;100.00;102101.78;5051484;28;20029;-52
2023/09/26 00:19:47;;;;;;;6.00;4.20;;;;;;;13.03;100.00;102105.63;5050680;28;20025;-55
2023/09/26 00:22:13;;;;;;;5.75;4.07;;;;;;;13.04;100.00;102107.31;5051245;28;20032;-54
2023/09/26 00:24:38;;;;;;;7.32;4.00;;;;;;;13.03;100.00;102108.28;5051729;28;20025;-54
2023/09/26 00:27:03;;;;;;;5.65;4.20;;;;;;;13.03;100.00;102109.13;5055288;28;20108;-54
2023/09/26 00:29:30;;;;;;;5.43;4.10;;;;;;;13.01;100.00;102104.88;5054884;28;20029;-54
2023/09/26 00:31:56;;;;;;;5.15;3.85;;;;;;;12.98;100.00;102102.41;5053541;28;20494;-52
2023/09/26 00:34:21;;;;;;;5.30;4.03;;;;;;;12.98;100.00;102103.25;5053619;28;20052;-54
2023/09/26 00:36:47;;;;;;;4.55;4.00;;;;;;;12.94;100.00;102096.44;5055477;28;20033;-55
2023/09/26 00:39:12;;;;;;;4.68;3.97;;;;;;;12.93;100.00;102106.22;5054497;28;20035;-54
2023/09/26 00:41:38;;;;;;;5.95;4.10;;;;;;;12.91;100.00;102110.81;5055514;28;20156;-55
2023/09/26 00:44:04;;;;;;;5.47;3.83;;;;;;;12.89;100.00;102107.41;5049960;28;20509;-54
2023/09/26 00:46:30;;;;;;;6.03;4.35;;;;;;;12.89;100.00;102099.41;5055221;28;20031;-53
2023/09/26 00:48:56;;;;;;;5.28;3.63;;;;;;;12.89;100.00;102093.19;5054832;28;20541;-52
2023/09/26 00:51:21;;;;;;;9.40;4.47;;;;;;;12.87;100.00;102103.09;5054231;28;20084;-55
2023/09/26 00:53:47;;;;;;;6.20;4.20;;;;;;;12.82;100.00;102105.22;5054811;28;20067;-53
2023/09/26 00:56:12;;;;;;;7.10;4.20;;;;;;;12.80;100.00;102101.81;5055307;28;20417;-55
2023/09/26 00:58:40;;;;;;;6.47;4.00;;;;;;;12.75;100.00;102092.28;5053941;28;20032;-53
2023/09/26 01:01:06;;;;;;;5.60;4.10;;;;;;;12.74;100.00;102095.09;5052835;28;20487;-55
2023/09/26 01:03:34;;;;;;;6.15;4.43;;;;;;;12.72;100.00;102095.19;5053780;28;20043;-52
2023/09/26 01:06:01;;;;;;;7.28;4.20;;;;;;;12.71;100.00;102093.47;5054696;28;20031;-53
2023/09/26 01:08:27;;;;;;;4.90;3.83;;;;;;;12.65;100.00;102082.34;5054226;28;20052;-52
2023/09/26 01:10:52;;;;;;;4.95;4.25;;;;;;;12.70;100.00;102098.91;5054370;28;20516;-55
2023/09/26 01:13:17;;;;;;;4.82;4.30;;;;;;;12.71;100.00;102087.28;5053927;28;20090;-53
2023/09/26 01:15:43;;;;;;;4.85;3.90;;;;;;;12.69;100.00;102084.72;5054432;28;20494;-55
2023/09/26 01:18:08;;;;;;;6.85;4.18;;;;;;;12.68;100.00;102088.31;5054748;28;20056;-52
2023/09/26 01:20:36;;;;;;;5.20;4.70;;;;;;;12.66;100.00;102090.25;5053761;28;20566;-53
2023/09/26 01:23:05;;;;;;;6.47;4.10;;;;;;;12.64;100.00;102085.97;5049963;28;20283;-52
2023/09/26 01:25:32;;;;;;;5.13;4.30;;;;;;;12.64;100.00;102092.16;5054133;28;20033;-52
2023/09/26 01:28:01;;;;;;;6.47;4.30;;;;;;;12.62;100.00;102094.06;5053851;28;20099;-53
2023/09/26 01:30:27;;;;;;;6.63;4.38;;;;;;;12.60;100.00;102095.97;5054631;28;20021;-53
2023/09/26 01:32:52;;;;;;;6.72;4.55;;;;;;;12.58;100.00;102103.22;5053290;28;20403;-53
2023/09/26 01:35:17;;;;;;;8.23;4.78;;;;;;;12.56;100.00;102100.66;5054104;28;20155;-54
2023/09/26 01:37:43;;;;;;;7.63;4.90;;;;;;;12.54;100.00;102099.03;5054207;28;20031;-53
2023/09/26 01:40:11;;;;;;;4.82;4.18;;;;;;;12.56;100.00;102095.31;5053072;28;20480;-53
2023/09/26 01:42:36;;;;;;;5.78;4.43;;;;;;;12.51;100.00;102091.25;5054334;28;20049;-53
2023/09/26 01:45:02;;;;;;;5.55;4.22;;;;;;;12.54;100.00;102089.25;5053034;28;20025;-53
2023/09/26 01:47:40;;;;;;;6.03;4.45;;;;;;;12.52;100.00;102087.63;5054313;28;20029;-52
2023/09/26 01:50:05;;;;;;;5.57;4.05;;;;;;;12.52;100.00;102090.28;5053066;28;20032;-54
2023/09/26 01:52:32;;;;;;;5.50;4.35;;;;;;;12.46;100.00;102082.72;5053970;28;20502;-54
2023/09/26 01:54:57;;;;;;;4.93;4.05;;;;;;;12.45;100.00;102081.81;5053250;28;20084;-54
2023/09/26 01:57:23;;;;;;;5.55;4.10;;;;;;;12.45;100.00;102080.97;5052951;28;20540;-54
2023/09/26 01:59:48;;;;;;;11.45;5.03;;;;;;;12.40;100.00;102079.44;5052307;28;20048;-52
2023/09/26 02:02:13;;;;;;;5.68;4.50;;;;;;;12.40;100.00;102083.94;5053146;28;20087;-53
2023/09/26 02:04:38;;;;;;;5.93;4.43;;;;;;;12.40;100.00;102082.13;5053706;28;20017;-53
2023/09/26 02:07:04;;;;;;;6.10;4.38;;;;;;;12.38;100.00;102084.03;5053497;28;20589;-52
2023/09/26 02:09:29;;;;;;;6.43;4.80;;;;;;;12.35;100.00;102078.91;5052975;28;20023;-52
2023/09/26 02:11:54;;;;;;;6.25;4.53;;;;;;;12.35;100.00;102076.22;5053148;28;20108;-52
2023/09/26 02:14:19;;;;;;;6.15;4.55;;;;;;;12.36;100.00;102074.44;5052680;28;20036;-52
2023/09/26 02:16:45;;;;;;;5.03;3.92;;;;;;;12.32;100.00;102067.59;5053341;28;20094;-52
2023/09/26 02:19:10;;;;;;;5.22;4.45;;;;;;;12.35;100.00;102080.72;5053199;28;20013;-52
2023/09/26 02:21:35;;;;;;;6.95;4.53;;;;;;;12.32;100.00;102065.81;5053753;28;20044;-54
2023/09/26 02:24:01;;;;;;;5.95;4.20;;;;;;;12.30;100.00;102067.69;5052101;28;20091;-50
2023/09/26 02:26:26;;;;;;;6.28;4.30;;;;;;;12.29;100.00;102071.31;5052949;28;20017;-54
2023/09/26 02:28:51;;;;;;;5.80;4.32;;;;;;;12.28;100.00;102069.59;5052300;28;20033;-53
2023/09/26 02:31:17;;;;;;;7.40;4.72;;;;;;;12.25;100.00;102071.63;5053256;28;20471;-52
2023/09/26 02:33:42;;;;;;;6.78;4.38;;;;;;;12.26;100.00;102079.50;5052471;28;20029;-52
2023/09/26 02:36:07;;;;;;;6.75;4.63;;;;;;;12.19;100.00;102071.06;5052789;28;20050;-51
2023/09/26 02:38:33;;;;;;;6.75;4.55;;;;;;;12.19;100.00;102068.38;5052778;28;20021;-52
2023/09/26 02:40:58;;;;;;;6.38;4.68;;;;;;;12.19;100.00;102072.84;5053089;28;20025;-52
2023/09/26 02:43:24;;;;;;;6.72;4.35;;;;;;;12.20;100.00;102066.56;5052551;28;20041;-52
2023/09/26 02:45:49;;;;;;;6.05;4.50;;;;;;;12.17;100.00;102053.44;5051859;28;20032;-52
2023/09/26 02:48:14;;;;;;;7.15;4.40;;;;;;;12.17;100.00;102059.66;5052481;28;20501;-52
2023/09/26 02:50:40;;;;;;;4.50;4.05;;;;;;;12.18;100.00;102055.16;5052295;28;20471;-52
2023/09/26 02:53:05;;;;;;;7.00;4.30;;;;;;;12.14;100.00;102051.84;5052449;28;20609;-52
2023/09/26 02:55:31;;;;;;;6.15;4.10;;;;;;;12.10;100.00;102050.31;5052340;28;20078;-54
2023/09/26 02:57:56;;;;;;;7.82;3.88;;;;;;;12.14;100.00;102048.31;5052654;28;20081;-55
2023/09/26 03:00:21;;;;;;;7.25;4.43;;;;;;;12.10;100.00;102036.16;5052082;28;20075;-53
2023/09/26 03:02:47;;;;;;;6.38;4.22;;;;;;;12.13;100.00;102033.31;5052552;28;20033;-51
2023/09/26 03:05:13;;;;;;;5.18;4.22;;;;;;;12.10;100.00;102028.16;5052485;28;20020;-55
2023/09/26 03:07:39;;;;;;;5.22;3.90;;;;;;;12.10;100.00;102031.69;5051911;28;20078;-53
2023/09/26 03:10:06;;;;;;;6.22;4.43;;;;;;;12.08;100.00;102027.41;5052694;28;20143;-52
2023/09/26 03:12:31;;;;;;;5.40;4.80;;;;;;;12.06;100.00;102034.63;5052548;28;20053;-54
2023/09/26 03:14:56;;;;;;;4.95;4.40;;;;;;;12.07;100.00;102028.38;5051329;28;20075;-54
2023/09/26 03:17:22;;;;;;;6.38;4.47;;;;;;;12.07;100.00;102039.00;5051067;28;20021;-53
2023/09/26 03:19:47;;;;;;;8.20;4.25;;;;;;;12.07;100.00;102031.03;5052164;28;20104;-55
2023/09/26 03:22:12;;;;;;;4.80;4.03;;;;;;;12.07;100.00;102023.88;5052015;28;20120;-52
2023/09/26 03:24:38;;;;;;;5.25;4.22;;;;;;;12.06;100.00;102030.19;5052630;28;20092;-54
2023/09/26 03:27:03;;;;;;;6.90;4.30;;;;;;;12.03;100.00;102030.38;5051340;28;20470;-54
2023/09/26 03:29:28;;;;;;;6.10;4.80;;;;;;;12.02;100.00;102023.31;5052233;28;20029;-52
2023/09/26 03:31:53;;;;;;;4.97;4.03;;;;;;;11.99;100.00;102028.84;5051969;28;20029;-52
2023/09/26 03:34:19;;;;;;;6.75;4.57;;;;;;;11.98;100.00;102030.66;5051346;28;20028;-53
2023/09/26 03:36:44;;;;;;;11.13;5.65;;;;;;;11.93;100.00;102027.44;5050835;28;20036;-52
2023/09/26 03:39:09;;;;;;;11.57;5.30;;;;;;;11.93;100.00;102032.75;5051432;28;20025;-52
2023/09/26 03:41:35;;;;;;;6.32;5.03;;;;;;;11.94;100.00;102030.94;5051438;28;20668;-52
2023/09/26 03:44:00;;;;;;;10.50;4.55;;;;;;;11.92;100.00;102028.38;5051232;28;20075;-51
2023/09/26 03:46:26;;;;;;;7.10;5.38;;;;;;;11.88;100.00;102033.97;5051584;28;20029;-53
2023/09/26 03:48:51;;;;;;;7.40;4.82;;;;;;;11.86;100.00;102028.75;5051003;28;20486;-53
2023/09/26 03:51:17;;;;;;;7.85;5.05;;;;;;;11.84;100.00;102036.00;5050476;28;20039;-51
2023/09/26 03:53:43;;;;;;;7.97;5.47;;;;;;;11.80;100.00;102032.63;5052053;28;20025;-51
2023/09/26 03:56:09;;;;;;;7.43;4.95;;;;;;;11.77;100.00;102029.31;5050765;28;20033;-51
2023/09/26 03:58:35;;;;;;;6.45;4.90;;;;;;;11.76;100.00;102017.81;5051487;28;20036;-51
2023/09/26 04:01:15;;;;;;;9.35;5.28;;;;;;;11.76;100.00;102022.31;5050781;28;20029;-52
2023/09/26 04:03:48;;;;;;;8.40;4.70;;;;;;;11.73;100.00;102020.69;5051143;28;20078;-52
2023/09/26 04:06:14;;;;;;;6.60;4.70;;;;;;;11.73;100.00;102030.47;5051110;28;20025;-51
2023/09/26 04:08:40;;;;;;;5.03;4.40;;;;;;;11.73;100.00;102026.00;5051783;28;20025;-51
2023/09/26 04:11:05;;;;;;;7.82;4.78;;;;;;;11.73;100.00;102033.13;5050029;28;20286;-51
2023/09/26 04:13:31;;;;;;;6.20;4.78;;;;;;;11.71;100.00;102024.38;5050614;28;20029;-51
2023/09/26 04:15:57;;;;;;;9.07;5.30;;;;;;;11.67;100.00;102018.38;5051202;28;20039;-51
2023/09/26 04:18:22;;;;;;;6.20;4.72;;;;;;;11.66;100.00;102014.88;5051696;28;20115;-52
2023/09/26 04:20:49;;;;;;;7.10;4.57;;;;;;;11.66;100.00;102020.19;5051144;28;20136;-51
2023/09/26 04:23:15;;;;;;;6.85;4.72;;;;;;;11.64;100.00;102011.47;5047160;28;20036;-52
2023/09/26 04:25:40;;;;;;;8.05;5.07;;;;;;;11.64;100.00;102006.16;5051188;28;20036;-51
2023/09/26 04:28:05;;;;;;;6.28;4.60;;;;;;;11.62;100.00;102000.06;5051403;28;20064;-52
2023/09/26 04:30:35;;;;;;;8.75;5.25;;;;;;;11.59;100.00;101994.06;5051127;28;20021;-51
2023/09/26 04:33:00;;;;;;;7.28;5.00;;;;;;;11.59;100.00;101988.75;5050213;28;20036;-51
2023/09/26 04:35:26;;;;;;;6.50;4.72;;;;;;;11.59;100.00;101996.72;5051560;28;20037;-51
2023/09/26 04:37:52;;;;;;;6.18;4.85;;;;;;;11.58;100.00;102006.53;5050373;28;20021;-53
2023/09/26 04:40:18;;;;;;;8.23;5.13;;;;;;;11.54;100.00;101997.03;5051413;28;20032;-54
2023/09/26 04:42:48;;;;;;;6.07;5.18;;;;;;;11.55;100.00;101996.06;5049862;28;20045;-52
2023/09/26 04:45:13;;;;;;;6.78;5.40;;;;;;;11.54;100.00;101989.06;5051113;28;20360;-52
2023/09/26 04:47:38;;;;;;;7.07;5.45;;;;;;;11.55;100.00;101981.91;5050638;28;20025;-51
2023/09/26 04:50:06;;;;;;;12.40;7.90;;;;;;;11.56;100.00;101980.97;5050742;28;20021;-51
2023/09/26 04:52:31;;;;;;;13.27;7.85;;;;;;;11.56;100.00;101983.63;5051084;28;20379;-51
2023/09/26 04:54:56;;;;;;;9.40;7.68;;;;;;;11.60;100.00;101977.16;5050293;28;20021;-50
2023/09/26 04:57:22;;;;;;;11.63;8.60;;;;;;;11.60;100.00;101980.66;5051102;28;20141;-52
2023/09/26 04:59:47;;;;;;;10.38;8.55;;;;;;;11.60;100.00;101979.81;5050312;28;20083;-51
2023/09/26 05:02:12;;;;;;;11.23;8.32;;;;;;;11.61;100.00;101979.72;5049070;28;20035;-53
2023/09/26 05:04:38;;;;;;;11.43;7.90;;;;;;;11.61;100.00;101987.69;5048074;28;20479;-51
2023/09/26 05:07:03;;;;;;;12.07;8.35;;;;;;;11.63;100.00;101983.13;5050725;28;20021;-52
2023/09/26 05:09:28;;;;;;;13.35;7.75;;;;;;;11.62;100.00;101989.44;5050407;28;20040;-52
2023/09/26 05:11:54;;;;;;;10.82;7.80;;;;;;;11.65;100.00;101989.22;5053318;28;20025;-51
2023/09/26 05:14:19;;;;;;;11.57;7.50;;;;;;;11.66;100.00;101985.59;5053559;28;20787;-52
2023/09/26 05:16:44;;;;;;;10.15;7.68;;;;;;;11.69;100.00;101983.69;5054542;28;20479;-52
2023/09/26 05:19:10;;;;;;;9.70;7.38;;;;;;;11.68;100.00;101974.03;5053245;28;20021;-51
2023/09/26 05:21:35;;;;;;;10.55;7.10;;;;;;;11.70;100.00;101974.78;5052566;28;20435;-51
2023/09/26 05:24:00;;;;;;;8.32;7.10;;;;;;;11.66;100.00;101977.63;5052237;28;20047;-52
2023/09/26 05:26:25;;;;;;;9.82;7.40;;;;;;;11.68;100.00;101974.03;5054618;28;20112;-51
2023/09/26 05:28:51;;;;;;;11.73;7.47;;;;;;;11.65;100.00;101978.56;5054133;28;20024;-51
2023/09/26 05:31:17;;;;;;;9.82;7.50;;;;;;;11.66;100.00;101979.44;5053395;28;20032;-52
2023/09/26 05:33:43;;;;;;;10.75;7.30;;;;;;;11.66;100.00;101982.94;5054432;28;20023;-53
2023/09/26 05:36:08;;;;;;;10.55;7.22;;;;;;;11.64;100.00;101987.50;5054711;28;20115;-52
2023/09/26 05:38:34;;;;;;;8.73;6.95;;;;;;;11.67;100.00;101983.78;5054211;28;20013;-52
2023/09/26 05:40:59;;;;;;;8.43;7.32;;;;;;;11.65;100.00;101983.88;5053041;28;20044;-52
2023/09/26 05:43:24;;;;;;;9.75;7.18;;;;;;;11.65;100.00;101986.53;5053630;28;20048;-53
2023/09/26 05:45:51;;;;;;;8.63;7.03;;;;;;;11.66;100.00;101988.28;5053930;28;20108;-52
2023/09/26 05:48:17;;;;;;;11.55;7.40;;;;;;;11.68;100.00;101995.31;5053094;28;20467;-53
2023/09/26 05:50:42;;;;;;;10.32;7.55;;;;;;;11.69;100.00;101997.00;5054132;28;20044;-52
2023/09/26 05:53:08;;;;;;;9.30;7.68;;;;;;;11.68;100.00;101998.81;5045819;28;20029;-52
2023/09/26 05:55:33;;;;;;;10.15;7.68;;;;;;;11.70;100.00;102004.03;5047779;28;20095;-52
2023/09/26 05:57:58;;;;;;;9.30;7.28;;;;;;;11.72;100.00;101997.66;5052500;28;20029;-52
2023/09/26 06:00:24;;;;;;;11.20;8.30;;;;;;;11.74;100.00;102003.75;5052271;28;20475;-52
2023/09/26 06:02:51;;;;;;;10.60;8.10;;;;;;;11.74;100.00;101993.13;5049704;28;20025;-51
2023/09/26 06:05:17;;;;;;;11.55;8.02;;;;;;;11.77;100.00;101990.25;5053320;28;20569;-52
2023/09/26 06:07:42;;;;;;;8.95;6.95;;;;;;;11.79;100.00;101993.69;5041174;28;20040;-53
2023/09/26 06:10:10;;;;;;;12.77;7.88;;;;;;;11.83;100.00;101989.84;5044115;28;20029;-52
2023/09/26 06:12:39;;;;;;;11.18;8.07;;;;;;;11.87;100.00;101995.00;5046057;28;20036;-51
2023/09/26 06:15:06;;;;;;;15.35;10.45;;;;;;;11.92;100.00;101991.09;5050741;28;20025;-52
2023/09/26 06:17:32;;;;;;;12.00;8.65;;;;;;;11.95;100.00;101993.56;5041980;28;20029;-53
2023/09/26 06:19:57;;;;;;;13.18;8.85;;;;;;;12.00;100.00;101994.13;5045685;28;20025;-52
2023/09/26 06:22:23;;;;;;;10.93;8.40;;;;;;;12.06;100.00;101989.34;5043067;28;20041;-52
2023/09/26 06:24:48;;;;;;;12.63;9.07;;;;;;;12.11;100.00;101976.63;5043786;28;20483;-51
2023/09/26 06:27:14;;;;;;;12.10;8.52;;;;;;;12.16;100.00;101969.19;5052069;28;20033;-51
2023/09/26 06:29:39;;;;;;;11.77;8.70;;;;;;;12.19;100.00;101976.94;5045898;28;20029;-51
2023/09/26 06:32:05;;;;;;;14.00;8.20;;;;;;;12.24;100.00;101972.22;5048594;28;20183;-51
2023/09/26 06:34:31;;;;;;;13.38;8.52;;;;;;;12.30;100.00;101965.63;5047851;28;20033;-51
2023/09/26 06:36:57;;;;;;;13.40;8.45;;;;;;;12.34;100.00;101975.97;5049714;28;20029;-51
2023/09/26 06:39:22;;;;;;;11.02;8.35;;;;;;;12.40;100.00;101977.38;5049017;28;20021;-51
2023/09/26 06:41:48;;;;;;;12.48;8.77;;;;;;;12.44;100.00;101973.56;5050678;28;20052;-51
2023/09/26 06:44:13;;;;;;;12.35;8.27;;;;;;;12.49;100.00;101983.88;5045546;28;20037;-51
2023/09/26 06:46:38;;;;;;;10.68;8.15;;;;;;;12.54;100.00;101995.09;5048448;28;20032;-52
2023/09/26 06:49:04;;;;;;;10.02;8.25;;;;;;;12.59;100.00;101985.00;5049859;28;20064;-51
2023/09/26 06:51:30;;;;;;;13.35;8.07;;;;;;;12.63;100.00;101986.50;5048351;28;20049;-50
2023/09/26 06:53:56;;;;;;;10.95;8.00;;;;;;;12.68;100.00;101995.03;5049467;28;20025;-50
2023/09/26 06:56:22;;;;;;;11.20;7.78;;;;;;;12.73;100.00;101994.72;5051008;28;20025;-51
2023/09/26 06:58:48;;;;;;;12.45;8.10;;;;;;;12.78;100.00;101997.94;5047337;28;20454;-51
2023/09/26 07:01:14;;;;;;;14.85;7.72;;;;;;;12.83;100.00;101993.16;5049869;28;20024;-54
2023/09/26 07:03:41;;;;;;;13.38;7.95;;;;;;;12.87;100.00;101991.13;5050363;28;20028;-51
2023/09/26 07:06:10;;;;;;;9.05;7.75;;;;;;;12.95;100.00;101999.44;5047900;28;20021;-51
2023/09/26 07:08:37;;;;;;;9.63;7.70;;;;;;;13.00;100.00;102004.47;5043334;28;20024;-51
2023/09/26 07:11:03;;;;;;;12.32;7.90;;;;;;;13.04;100.00;101998.84;5049617;28;20022;-50
2023/09/26 07:13:29;;;;;;;11.35;7.85;;;;;;;13.10;100.00;102001.06;5046377;28;20112;-53
2023/09/26 07:15:59;;;;;;;10.95;7.60;;;;;;;13.17;100.00;102001.50;5044335;28;20108;-50
2023/09/26 07:18:24;;;;;;;9.45;7.20;;;;;;;13.23;100.00;101987.72;5048518;28;20021;-51
2023/09/26 07:20:50;;;;;;;11.60;7.40;;;;;;;13.29;100.00;101989.13;5049954;28;20112;-52
2023/09/26 07:23:15;;;;;;;10.60;7.10;;;;;;;13.36;100.00;101982.44;5045693;28;20106;-50
2023/09/26 07:25:40;;;;;;;9.98;7.00;;;;;;;13.46;100.00;101986.16;5043979;28;20017;-51
2023/09/26 07:28:06;;;;;;;10.48;7.47;;;;;;;13.53;100.00;101991.91;5051422;28;20025;-50
2023/09/26 07:30:31;;;;;;;11.73;7.25;;;;;;;13.66;100.00;101983.91;5047625;28;20029;-52
2023/09/26 07:32:57;;;;;;;12.93;7.57;;;;;;;13.76;100.00;101995.63;5046528;28;20502;-51
2023/09/26 07:35:23;;;;;;;10.20;7.07;;;;;;;13.88;100.00;101992.06;5049914;28;20025;-52
2023/09/26 07:37:48;;;;;;;11.45;7.10;;;;;;;13.98;100.00;101984.22;5041770;28;20051;-50
2023/09/26 07:40:14;;;;;;;11.85;6.57;;;;;;;14.06;100.00;101981.84;5044697;28;20033;-51
2023/09/26 07:42:40;;;;;;;8.98;6.05;;;;;;;14.14;100.00;101977.75;5045233;28;20068;-52
2023/09/26 07:45:06;;;;;;;9.95;6.18;;;;;;;14.22;100.00;101986.94;5049685;28;20055;-51
2023/09/26 07:47:31;;;;;;;9.77;6.38;;;;;;;14.26;100.00;101976.88;5045544;28;20029;-54
2023/09/26 07:49:56;;;;;;;10.23;6.65;;;;;;;14.33;100.00;101982.59;5048626;28;20530;-51
2023/09/26 07:52:26;;;;;;;12.15;6.13;;;;;;;14.38;100.00;101983.97;5050607;28;20044;-50
2023/09/26 07:54:51;;;;;;;;;;;;;;;14.48;100.00;101989.47;5052135;28;20021;-53
2023/09/26 07:57:16;;;;;;;12.73;6.10;;;;;;;14.53;100.00;101992.66;5051642;28;19909;-50
2023/09/26 07:59:42;;;;;;;9.13;6.10;;;;;;;14.61;100.00;101984.09;5051256;28;20051;-51
2023/09/26 08:02:07;;;;;;;7.93;5.65;;;;;;;14.71;100.00;101987.78;5045248;28;20036;-54
2023/09/26 08:04:32;;;;;;;13.00;6.22;;;;;;;14.82;100.00;101986.09;5046854;28;20020;-51
2023/09/26 08:06:57;;;;;;;10.32;6.10;;;;;;;14.95;100.00;101977.03;5050025;28;20547;-51
2023/09/26 08:09:23;;;;;;;13.05;6.13;;;;;;;15.11;100.00;101971.31;5048378;28;20029;-51
2023/09/26 08:11:48;;;;;;;8.95;5.57;;;;;;;15.28;100.00;101966.47;5048695;28;20029;-54
2023/09/26 08:14:13;;;;;;;7.53;5.28;;;;;;;15.39;100.00;101973.66;5051164;28;20074;-52
2023/09/26 08:16:39;;;;;;;10.88;5.80;;;;;;;15.50;100.00;101979.00;5022053;28;20017;-52
2023/09/26 08:19:04;;;;;;;10.38;5.50;;;;;;;15.58;99.26;101987.28;5047497;28;20021;-51
2023/09/26 08:21:29;;;;;;;9.23;4.78;;;;;;;15.67;98.43;101973.16;5050341;28;20379;-52
2023/09/26 08:23:55;;;;;;;6.50;4.85;;;;;;;15.79;97.88;101971.34;5050216;28;20040;-52
2023/09/26 08:26:20;;;;;;;9.50;4.85;;;;;;;15.91;96.34;101974.88;5050360;28;20029;-52
2023/09/26 08:28:46;;;;;;;7.57;5.30;;;;;;;16.02;95.26;101982.88;5050622;28;20120;-52
2023/09/26 08:31:15;;;;;;;7.25;4.80;;;;;;;16.23;96.68;101979.41;5050147;28;20025;-52
2023/09/26 08:33:42;;;;;;;7.75;4.68;;;;;;;16.42;96.54;101968.00;5051000;28;20032;-52
2023/09/26 08:36:15;;;;;;;7.35;4.82;;;;;;;16.59;96.29;101986.22;5050870;28;20467;-51
2023/09/26 08:38:40;;;;;;;6.00;4.68;;;;;;;16.71;92.98;101978.97;5049959;28;20544;-54
2023/09/26 08:41:08;;;;;;;11.50;5.05;;;;;;;16.90;91.62;101986.31;5046110;28;20033;-51
2023/09/26 08:43:33;;;;;;;8.02;4.68;;;;;;;17.02;90.82;101973.72;5050434;28;20036;-55
2023/09/26 08:45:59;;;;;;;5.93;4.20;;;;;;;17.20;89.83;101973.94;5051205;28;20382;-52
2023/09/26 08:48:24;;;;;;;6.70;4.50;;;;;;;17.34;89.33;101965.53;5054464;28;20028;-53
2023/09/26 08:50:50;;;;;;;4.85;3.85;;;;;;;17.51;87.53;101968.56;5054682;28;20032;-54
2023/09/26 08:53:16;;;;;;;12.95;4.57;;;;;;;17.67;87.32;101966.22;5048542;28;20039;-53
2023/09/26 08:55:42;;;;;;;6.43;4.10;;;;;;;17.78;84.36;101967.09;5044987;28;20108;-54
2023/09/26 08:58:08;;;;;;;9.75;3.70;;;;;;;17.91;85.50;101973.09;5044199;28;21364;-54
2023/09/26 09:00:33;;;;;;;7.38;3.90;;;;;;;18.11;84.92;101965.91;5050064;28;20412;-51
2023/09/26 09:02:59;;;;;;;6.32;3.83;;;;;;;18.21;82.58;101963.25;5047916;28;20033;-52
2023/09/26 09:05:24;;;;;;;5.20;3.57;;;;;;;18.40;81.44;101952.50;5047086;28;20024;-51
2023/09/26 09:07:50;;;;;;;7.47;4.15;;;;;;;18.60;82.05;101957.84;5050400;28;20789;-52
2023/09/26 09:10:19;;;;;;;7.50;3.78;;;;;;;18.84;83.65;101952.06;5048955;28;20041;-54
2023/09/26 09:12:50;;;;;;;6.43;3.92;;;;;;;19.04;82.06;101952.84;5042463;28;20068;-52
2023/09/26 09:15:15;;;;;;;5.10;3.55;;;;;;;19.25;76.51;101965.25;5051763;28;20375;-52
2023/09/26 09:17:42;;;;;;;5.30;3.50;;;;;;;19.38;75.42;101963.94;5044973;28;20021;-51
2023/09/26 09:20:08;;;;;;;7.97;3.63;;;;;;;19.65;78.63;101973.03;5049259;28;20502;-52
2023/09/26 09:22:33;;;;;;;5.25;3.50;;;;;;;19.82;77.00;101971.41;5052568;28;20025;-53
2023/09/26 09:24:59;;;;;;;5.88;3.22;;;;;;;19.94;75.41;101972.88;5047599;28;20029;-52
2023/09/26 09:27:38;;;;;;;5.22;3.00;;;;;;;20.02;78.00;101964.03;5051922;28;20103;-52
2023/09/26 09:30:08;;;;;;;5.97;3.40;;;;;;;20.12;75.53;101964.81;5054140;28;20036;-51
2023/09/26 09:32:35;;;;;;;8.70;3.30;;;;;;;20.35;74.32;101967.06;5050102;28;20391;-52
2023/09/26 09:35:01;;;;;;;6.10;3.22;;;;;;;20.58;72.50;101969.28;5056383;28;20025;-52
2023/09/26 09:37:27;;;;;;;9.48;3.30;;;;;;;20.57;68.63;101963.03;5053800;28;20025;-52
2023/09/26 09:39:52;;;;;;;8.95;3.70;;;;;;;20.67;69.25;101957.59;5051607;28;20037;-52
2023/09/26 09:42:18;;;;;;;5.47;3.53;;;;;;;20.77;71.94;101955.63;5052643;28;20530;-52
2023/09/26 09:44:44;;;;;;;5.15;2.90;;;;;;;20.94;72.43;101942.25;5051621;28;20035;-53
2023/09/26 09:47:11;;;;;;;4.93;3.33;;;;;;;21.06;71.12;101939.09;5046197;28;20028;-52
2023/09/26 09:49:46;;;;;;;7.85;3.25;;;;;;;21.14;70.06;101934.75;5050791;28;20082;-52
2023/09/26 09:52:12;;;;;;;5.82;3.10;;;;;;;21.16;68.33;101941.69;5047080;28;20029;-52
2023/09/26 09:54:43;;;;;;;4.57;2.83;;;;;;;21.28;68.57;101939.53;5046578;28;20119;-53
2023/09/26 09:57:10;;;;;;;6.05;2.95;;;;;;;21.27;67.13;101943.28;5049631;28;20032;-52
2023/09/26 09:59:37;;;;;;;4.68;2.90;;;;;;;21.39;68.52;101933.84;5048802;28;20040;-53
2023/09/26 10:02:04;;;;;;;4.07;3.00;;;;;;;21.44;67.47;101949.59;5045689;28;20036;-51
2023/09/26 10:04:31;;;;;;;5.53;2.92;;;;;;;21.60;71.26;101941.59;5043502;28;20351;-55
2023/09/26 10:06:58;;;;;;;7.30;3.15;;;;;;;21.64;66.71;101936.69;5050218;28;20052;-53
2023/09/26 10:09:24;;;;;;;6.03;2.80;;;;;;;21.69;69.09;101939.75;5047935;28;20017;-53
2023/09/26 10:11:52;;;;;;;2.95;2.53;;;;;;;21.64;68.72;101934.00;5047411;28;20051;-53
2023/09/26 10:14:27;;;;;;;7.10;2.72;;;;;;;21.77;70.71;101939.78;5043940;28;20037;-52
2023/09/26 10:16:54;;;;;;;7.53;2.92;;;;;;;21.66;67.67;101934.66;5041983;28;20425;-52
2023/09/26 10:19:22;;;;;;;9.48;3.28;;;;;;;21.82;67.97;101936.59;5048360;28;20094;-52
2023/09/26 10:21:47;;;;;;;5.68;2.92;;;;;;;21.73;66.28;101934.84;5045308;28;20372;-51
2023/09/26 10:24:13;;;;;;;3.35;2.72;;;;;;;21.72;68.91;101936.72;5049030;28;20658;-54
2023/09/26 10:26:49;;;;;;;5.60;3.00;;;;;;;21.80;69.48;101938.59;5028372;28;20028;-52
2023/09/26 10:29:14;;;;;;;5.10;3.10;;;;;;;21.82;66.52;101931.16;5045995;28;20040;-52
2023/09/26 10:31:41;;;;;;;6.27;3.30;;;;;;;21.83;66.61;101934.72;5041637;28;20435;-52
2023/09/26 10:34:07;;;;;;;6.45;3.42;;;;;;;21.89;67.04;101931.34;5044028;28;20028;-51
2023/09/26 10:36:37;;;;;;;4.88;3.05;;;;;;;22.02;66.28;101936.28;5045786;28;20548;-52
2023/09/26 10:39:05;;;;;;;4.78;3.58;;;;;;;21.99;65.99;101926.63;5048460;28;20380;-52
2023/09/26 10:41:31;;;;;;;4.50;3.13;;;;;;;22.06;68.10;101921.41;5050015;28;20017;-52
2023/09/26 10:43:57;;;;;;;5.68;3.55;;;;;;;22.10;66.65;101922.75;5046278;28;20041;-52
2023/09/26 10:46:22;;;;;;;7.90;3.50;;;;;;;22.10;66.71;101920.91;5046776;28;20021;-52
2023/09/26 10:48:48;;;;;;;7.57;3.50;;;;;;;22.14;69.21;101929.53;5046280;28;20029;-52
2023/09/26 10:51:15;;;;;;;4.85;3.47;;;;;;;22.20;64.65;101928.88;5046686;28;20025;-53
2023/09/26 10:53:41;;;;;;;4.55;3.75;;;;;;;22.18;66.52;101926.31;5052524;28;20028;-53
2023/09/26 10:56:08;;;;;;;6.68;3.15;;;;;;;22.25;65.47;101922.94;5046358;28;20499;-50
2023/09/26 10:58:33;;;;;;;7.47;3.47;;;;;;;22.29;64.00;101903.53;5050364;28;20116;-51
2023/09/26 11:00:58;;;;;;;7.35;3.70;;;;;;;22.32;63.59;101922.13;5046959;28;20099;-53
2023/09/26 11:03:25;;;;;;;3.97;3.53;;;;;;;22.28;65.22;101919.88;5049570;28;20494;-51
2023/09/26 11:05:50;;;;;;;6.63;3.60;;;;;;;22.40;64.70;101923.13;5049965;28;20733;-52
2023/09/26 11:08:17;;;;;;;5.03;3.72;;;;;;;22.40;64.83;101933.97;5047921;28;20061;-52
2023/09/26 11:10:47;;;;;;;5.15;3.28;;;;;;;22.45;66.24;101946.00;5048305;28;20087;-52